Skip Navigation LinksHome page > Weather > Current weather Skip Navigation Links

Current Weather

Heathrow, London

For information only: do not use for flight planning or navigation.
Latest weather
Observation time Monday, February 8, 2016 3:20 AM GMT
Local time Monday, February 8, 2016 3:47 AM GMT
Flight conditions Visual Meteorological Conditions
Winds
Wind direction Southwest (220°)
Wind speed 16 mph
Visibility 6.2 mi.
Sky condition
Ceiling unlimited
Cloud layer few clouds 4,500 ft.
Temperature 46°F
Dewpoint 37°F
Altimeter 29.06 in.Hg
Derived measurements
Relative humidity 71%
Wind chill 40°F
Density altitude 277 ft.
Remarks
Fully automated report.
No significant changes expected in the next two hours.
METAR EGLL 080320Z AUTO 22014KT 9999 FEW045 08/03 Q0984 NOSIG

Settings

Location code

InnerDrive.Weather 4.0.5722.1 Release CLR 4.0.30319.34209
Copyright ©2015 Inner Drive Technology. All rights reserved. Portions Copyright ©1986-2015 David Braverman.

Find weather

Site navigation


Skip Navigation Links

Place info

Page info

PayPal - The safer, easier way to pay online!

Return home.

Copyright ©2016 Inner Drive Technology. Purveyors of fine, hand-crafted computer software. Page printed 2016-02-08T03:47:38 UTC.